Time;durP1;ratioP1;P1;durP2;ratioP2;P2;SDS_P1;SDS_P2;PMS_P1;PMS_P2;Temp;Humidity;BMP_temperature;BMP_pressure;BME280_temperature;BME280_humidity;BME280_pressure;Samples;Min_cycle;Max_cycle;Signal;HPM_P1;HPM_P2
2021/11/07 00:06:22;;;;;;;;;;;-0.50;99.90;;;;;;5092133;28;19915;-75
2021/11/07 00:08:55;;;;;;;;;;;-0.40;99.90;;;;;;5092055;28;19908;-75
2021/11/07 00:11:35;;;;;;;;;;;-0.40;99.90;;;;;;5073139;28;19916;-75
2021/11/07 00:14:01;;;;;;;;;;;-0.30;99.90;;;;;;5091631;28;19957;-75
2021/11/07 00:16:30;;;;;;;;;;;-0.30;99.90;;;;;;5090515;28;19908;-75
2021/11/07 00:19:06;;;;;;;;;;;-0.20;99.90;;;;;;5071349;28;20286;-75
2021/11/07 00:21:40;;;;;;;;;;;-0.20;99.90;;;;;;5071018;28;19908;-75
2021/11/07 00:24:12;;;;;;;;;;;-0.10;99.90;;;;;;5071575;28;19987;-74
2021/11/07 00:29:23;;;;;;;;;;;-0.10;99.90;;;;;;5071354;28;20003;-75
2021/11/07 00:37:11;;;;;;;;;;;-0.20;99.90;;;;;;5071364;28;19931;-74
2021/11/07 00:42:23;;;;;;;;;;;-0.30;99.90;;;;;;5071105;28;19908;-74
2021/11/07 00:44:57;;;;;;;;;;;-0.40;99.90;;;;;;5053308;28;19931;-76
2021/11/07 00:47:37;;;;;;;;;;;-0.50;99.90;;;;;;5080072;28;20200;-74
2021/11/07 00:50:16;;;;;;;;;;;-0.50;99.90;;;;;;5090794;28;20484;-75
2021/11/07 00:55:39;;;;;;;;;;;-0.60;99.90;;;;;;5091399;28;19990;-77
2021/11/07 01:02:59;;;;;;;;;;;-0.80;99.90;;;;;;5091362;28;20384;-74
2021/11/07 01:05:27;;;;;;;;;;;-0.80;99.90;;;;;;5091610;28;19931;-74
2021/11/07 01:07:53;;;;;;;;;;;-0.80;99.90;;;;;;5091216;28;19908;-74
2021/11/07 01:10:19;;;;;;;;;;;-0.80;99.90;;;;;;5090397;28;19916;-74
2021/11/07 01:12:45;;;;;;;;;;;-1.00;99.90;;;;;;5091406;28;19908;-75
2021/11/07 01:15:10;;;;;;;;;;;-1.00;99.90;;;;;;5091155;28;19916;-75
2021/11/07 01:17:36;;;;;;;;;;;-0.90;99.90;;;;;;5079811;28;19913;-76
2021/11/07 01:20:03;;;;;;;;;;;-0.90;99.90;;;;;;5070530;28;19910;-75
2021/11/07 01:23:17;;;;;;;;;;;-0.90;99.90;;;;;;5071009;28;19908;-74
2021/11/07 01:25:14;;;;;;;;;;;-1.10;99.90;;;;;;5063351;28;19908;-75
2021/11/07 01:27:42;;;;;;;;;;;-1.10;99.90;;;;;;5070925;28;20470;-75
2021/11/07 01:30:13;;;;;;;;;;;-1.00;99.90;;;;;;5070380;28;19909;-74
2021/11/07 01:32:42;;;;;;;;;;;-0.90;99.90;;;;;;5052961;28;20351;-75
2021/11/07 01:35:19;;;;;;;;;;;-0.90;99.90;;;;;;5052757;28;19920;-74
2021/11/07 01:37:57;;;;;;;;;;;-0.80;99.90;;;;;;5070883;28;19915;-75
2021/11/07 01:40:26;;;;;;;;;;;-0.80;99.90;;;;;;5072325;28;19908;-75
2021/11/07 01:42:59;;;;;;;;;;;-0.70;99.90;;;;;;5074652;28;19961;-74
2021/11/07 01:45:32;;;;;;;;;;;-0.70;99.90;;;;;;5056514;28;19913;-74
2021/11/07 01:48:20;;;;;;;;;;;-0.60;99.90;;;;;;5088346;28;20321;-75
2021/11/07 01:50:52;;;;;;;;;;;-0.50;99.90;;;;;;5094502;28;19908;-74
2021/11/07 01:53:25;;;;;;;;;;;-0.50;99.90;;;;;;5094827;28;20355;-75
2021/11/07 01:55:52;;;;;;;;;;;-0.40;99.90;;;;;;5076358;28;20275;-75
2021/11/07 01:58:17;;;;;;;;;;;-0.30;99.90;;;;;;5094531;28;19912;-74
2021/11/07 02:00:44;;;;;;;;;;;-0.20;99.90;;;;;;5094130;28;20386;-75
2021/11/07 02:03:10;;;;;;;;;;;-0.30;99.90;;;;;;5094629;28;19915;-75
2021/11/07 02:05:36;;;;;;;;;;;-0.30;99.90;;;;;;5094845;28;19929;-75
2021/11/07 02:08:03;;;;;;;;;;;-0.30;99.90;;;;;;5094476;28;19986;-75
2021/11/07 02:10:29;;;;;;;;;;;-0.40;99.90;;;;;;5093647;28;19916;-74
2021/11/07 02:12:55;;;;;;;;;;;-0.40;99.90;;;;;;5094498;28;20046;-74
2021/11/07 02:15:21;;;;;;;;;;;-0.40;99.90;;;;;;5094356;28;20003;-74
2021/11/07 02:17:47;;;;;;;;;;;-0.40;99.90;;;;;;5081732;28;20423;-74
2021/11/07 02:20:22;;;;;;;;;;;-0.30;99.90;;;;;;5076674;28;20301;-74
2021/11/07 02:22:48;;;;;;;;;;;-0.20;99.90;;;;;;5079271;28;19959;-75
2021/11/07 02:25:13;;;;;;;;;;;-0.10;99.90;;;;;;5075012;28;19934;-76
2021/11/07 02:27:39;;;;;;;;;;;-0.10;99.90;;;;;;5073646;28;20275;-75
2021/11/07 02:30:06;;;;;;;;;;;-0.10;99.90;;;;;;5073186;28;20325;-75
2021/11/07 02:32:32;;;;;;;;;;;-0.10;99.90;;;;;;5073533;28;20405;-75
2021/11/07 02:34:57;;;;;;;;;;;-0.10;99.90;;;;;;5073424;28;20015;-74
2021/11/07 02:37:23;;;;;;;;;;;-0.20;99.90;;;;;;5055632;28;19908;-75
2021/11/07 02:39:49;;;;;;;;;;;-0.10;99.90;;;;;;5072748;28;19954;-75
2021/11/07 02:42:14;;;;;;;;;;;-0.20;99.90;;;;;;5073400;28;19916;-75
2021/11/07 02:44:41;;;;;;;;;;;-0.20;99.90;;;;;;5073354;28;19913;-75
2021/11/07 02:47:09;;;;;;;;;;;-0.20;99.90;;;;;;5079911;28;20007;-75
2021/11/07 02:49:35;;;;;;;;;;;-0.20;99.90;;;;;;5093033;28;19927;-76
2021/11/07 02:52:01;;;;;;;;;;;-0.20;99.90;;;;;;5093106;28;19999;-77
2021/11/07 02:54:27;;;;;;;;;;;-0.30;99.90;;;;;;5093009;28;19956;-75
2021/11/07 02:56:53;;;;;;;;;;;-0.20;99.90;;;;;;5093368;28;19908;-76
2021/11/07 02:59:21;;;;;;;;;;;-0.30;99.90;;;;;;5093272;28;19908;-75
2021/11/07 03:01:46;;;;;;;;;;;-0.30;99.90;;;;;;5092780;28;19918;-75
2021/11/07 03:04:12;;;;;;;;;;;-0.40;99.90;;;;;;5093157;28;19908;-75
2021/11/07 03:06:38;;;;;;;;;;;-0.30;99.90;;;;;;5093011;28;19998;-75
2021/11/07 03:09:04;;;;;;;;;;;-0.30;99.90;;;;;;5092733;28;19908;-75
2021/11/07 03:11:30;;;;;;;;;;;-0.30;99.90;;;;;;5092527;28;19939;-75
2021/11/07 03:14:02;;;;;;;;;;;-0.30;99.90;;;;;;5074969;28;19908;-74
2021/11/07 03:16:28;;;;;;;;;;;-0.20;99.90;;;;;;5091334;28;20270;-75
2021/11/07 03:18:53;;;;;;;;;;;-0.20;99.90;;;;;;5072517;28;19915;-75
2021/11/07 03:21:20;;;;;;;;;;;-0.20;99.90;;;;;;5072060;28;19908;-76
2021/11/07 03:23:52;;;;;;;;;;;-0.20;99.90;;;;;;5072710;28;19912;-75
2021/11/07 03:26:19;;;;;;;;;;;-0.30;99.90;;;;;;5072615;28;19915;-74
2021/11/07 03:28:46;;;;;;;;;;;-0.30;99.90;;;;;;5072425;28;20349;-75
2021/11/07 03:36:09;;;;;;;;;;;-0.20;99.90;;;;;;5072215;28;19912;-75
2021/11/07 03:38:35;;;;;;;;;;;-0.20;99.90;;;;;;5072438;28;19966;-74
2021/11/07 03:41:01;;;;;;;;;;;-0.30;99.90;;;;;;5071896;28;19912;-74
2021/11/07 03:43:28;;;;;;;;;;;-0.30;99.90;;;;;;5072221;28;19913;-74
2021/11/07 03:45:55;;;;;;;;;;;-0.50;99.90;;;;;;5072070;28;20347;-75
2021/11/07 03:48:21;;;;;;;;;;;-0.50;99.90;;;;;;5089003;28;19951;-74
2021/11/07 03:50:47;;;;;;;;;;;-0.70;99.90;;;;;;5091882;28;19919;-75
2021/11/07 03:53:13;;;;;;;;;;;-0.60;99.90;;;;;;5092281;28;19908;-75
2021/11/07 03:55:38;;;;;;;;;;;-0.50;99.90;;;;;;5092225;28;19912;-74
2021/11/07 03:58:04;;;;;;;;;;;-0.40;99.90;;;;;;5092167;28;19909;-74
2021/11/07 04:00:29;;;;;;;;;;;-0.50;99.90;;;;;;5091852;28;20324;-74
2021/11/07 04:02:57;;;;;;;;;;;-0.60;99.90;;;;;;5091310;28;19908;-74
2021/11/07 04:05:23;;;;;;;;;;;-0.70;99.90;;;;;;5091812;28;20437;-75
2021/11/07 04:07:50;;;;;;;;;;;-0.70;99.90;;;;;;5073644;28;19908;-74
2021/11/07 04:10:16;;;;;;;;;;;-0.70;99.90;;;;;;5091303;28;19916;-74
2021/11/07 04:12:41;;;;;;;;;;;-0.80;99.90;;;;;;5091793;28;19935;-74
2021/11/07 04:15:07;;;;;;;;;;;-0.80;99.90;;;;;;5091709;28;19965;-74
2021/11/07 04:17:33;;;;;;;;;;;-0.60;99.90;;;;;;5080816;28;19954;-74
2021/11/07 04:19:58;;;;;;;;;;;-0.60;99.90;;;;;;5071004;28;20011;-74
2021/11/07 04:22:24;;;;;;;;;;;-0.60;99.90;;;;;;5071525;28;20012;-74
2021/11/07 04:24:50;;;;;;;;;;;-0.40;99.90;;;;;;5071637;28;19939;-74
2021/11/07 04:27:16;;;;;;;;;;;-0.30;99.90;;;;;;5071588;28;19908;-74
2021/11/07 04:29:42;;;;;;;;;;;-0.20;99.90;;;;;;5071084;28;19912;-74
2021/11/07 04:32:07;;;;;;;;;;;-0.20;99.90;;;;;;5071721;28;20000;-75
2021/11/07 04:34:33;;;;;;;;;;;-0.10;99.90;;;;;;5071742;28;19916;-76
2021/11/07 04:36:58;;;;;;;;;;;0.00;99.90;;;;;;5053488;28;20011;-74
2021/11/07 04:39:25;;;;;;;;;;;0.00;99.90;;;;;;5071930;28;19909;-74
2021/11/07 04:41:51;;;;;;;;;;;0.00;99.90;;;;;;5071439;28;19966;-76
2021/11/07 04:44:16;;;;;;;;;;;0.00;99.90;;;;;;5053503;28;19955;-74
2021/11/07 04:46:42;;;;;;;;;;;0.00;99.90;;;;;;5056450;28;19908;-74
2021/11/07 04:49:07;;;;;;;;;;;0.20;99.90;;;;;;5091270;28;20439;-75
2021/11/07 04:51:33;;;;;;;;;;;0.10;99.90;;;;;;5091048;28;20369;-75
2021/11/07 04:53:59;;;;;;;;;;;0.00;99.90;;;;;;5091586;28;19908;-74
2021/11/07 04:56:24;;;;;;;;;;;0.00;99.90;;;;;;5091467;28;19912;-74
2021/11/07 04:58:50;;;;;;;;;;;0.00;99.90;;;;;;5091577;28;19908;-74
2021/11/07 05:01:16;;;;;;;;;;;-0.10;99.90;;;;;;5090998;28;19999;-76
2021/11/07 05:03:42;;;;;;;;;;;-0.20;99.90;;;;;;5091314;28;19916;-77
2021/11/07 05:06:07;;;;;;;;;;;-0.10;99.90;;;;;;5091277;28;19914;-74
2021/11/07 05:08:33;;;;;;;;;;;-0.10;99.90;;;;;;5091353;28;19962;-74
2021/11/07 05:10:58;;;;;;;;;;;0.00;99.90;;;;;;5072647;28;20374;-75
2021/11/07 05:13:24;;;;;;;;;;;0.00;99.90;;;;;;5091415;28;20305;-75
2021/11/07 05:15:49;;;;;;;;;;;0.10;99.90;;;;;;5095073;28;20286;-74
2021/11/07 05:18:18;;;;;;;;;;;0.00;99.90;;;;;;5078278;28;19955;-74
2021/11/07 05:20:44;;;;;;;;;;;0.00;99.90;;;;;;5074485;28;19909;-74
2021/11/07 05:23:09;;;;;;;;;;;0.10;99.90;;;;;;5074937;28;19908;-74
2021/11/07 05:25:35;;;;;;;;;;;0.10;99.90;;;;;;5056890;28;20433;-74
2021/11/07 05:28:00;;;;;;;;;;;-0.10;99.90;;;;;;5074789;28;20057;-75
2021/11/07 05:30:26;;;;;;;;;;;0.10;99.90;;;;;;5074255;28;20409;-74
2021/11/07 05:32:51;;;;;;;;;;;0.10;99.90;;;;;;5074633;28;19913;-74
2021/11/07 05:35:19;;;;;;;;;;;0.10;99.90;;;;;;5074418;28;20282;-74
2021/11/07 05:37:45;;;;;;;;;;;0.10;99.90;;;;;;5056598;28;19931;-74
2021/11/07 05:40:11;;;;;;;;;;;0.20;99.90;;;;;;5074028;28;20019;-74
2021/11/07 05:42:36;;;;;;;;;;;0.20;99.90;;;;;;5056586;28;19944;-75
2021/11/07 05:45:02;;;;;;;;;;;0.30;99.90;;;;;;5074369;28;19919;-75
2021/11/07 05:47:28;;;;;;;;;;;0.20;99.90;;;;;;5060455;28;19967;-74
2021/11/07 05:49:53;;;;;;;;;;;0.30;99.90;;;;;;5073700;28;20413;-74
2021/11/07 05:52:19;;;;;;;;;;;0.20;99.90;;;;;;5074309;28;19944;-74
2021/11/07 05:54:45;;;;;;;;;;;0.20;99.90;;;;;;5074187;28;19912;-75
2021/11/07 05:57:10;;;;;;;;;;;0.20;99.90;;;;;;5056407;28;20112;-74
2021/11/07 05:59:36;;;;;;;;;;;0.10;99.90;;;;;;5073958;28;19936;-75
2021/11/07 06:02:02;;;;;;;;;;;0.20;99.90;;;;;;5073847;28;20279;-74
2021/11/07 06:04:27;;;;;;;;;;;0.20;99.90;;;;;;5074012;28;19909;-75
2021/11/07 06:06:53;;;;;;;;;;;0.20;99.90;;;;;;5074029;28;19909;-74
2021/11/07 06:09:18;;;;;;;;;;;0.10;99.90;;;;;;5074044;28;19908;-74
2021/11/07 06:11:45;;;;;;;;;;;0.20;99.90;;;;;;5073495;28;19939;-74
2021/11/07 06:14:11;;;;;;;;;;;0.20;99.90;;;;;;5055935;28;20003;-74
2021/11/07 06:16:36;;;;;;;;;;;0.30;99.90;;;;;;5076522;28;20003;-74
2021/11/07 06:19:02;;;;;;;;;;;0.30;99.90;;;;;;5093946;28;19965;-74
2021/11/07 06:21:29;;;;;;;;;;;0.30;99.90;;;;;;5093629;28;19931;-76
2021/11/07 06:23:56;;;;;;;;;;;0.30;99.90;;;;;;5094085;28;19908;-74
2021/11/07 06:26:21;;;;;;;;;;;0.30;99.90;;;;;;5093296;28;19912;-74
2021/11/07 06:28:47;;;;;;;;;;;0.50;99.90;;;;;;5093843;28;19914;-76
2021/11/07 06:31:13;;;;;;;;;;;0.50;99.90;;;;;;5093470;28;19998;-74
2021/11/07 06:33:39;;;;;;;;;;;0.40;99.90;;;;;;5075839;28;19908;-75
2021/11/07 06:36:05;;;;;;;;;;;0.40;99.90;;;;;;5093964;28;19912;-74
2021/11/07 06:38:32;;;;;;;;;;;0.50;99.90;;;;;;5093984;28;19915;-74
2021/11/07 06:40:57;;;;;;;;;;;0.50;99.90;;;;;;5075490;28;20282;-74
2021/11/07 06:43:23;;;;;;;;;;;0.40;99.90;;;;;;5093728;28;19908;-74
2021/11/07 06:45:48;;;;;;;;;;;0.40;99.90;;;;;;5093534;28;19931;-75
2021/11/07 06:48:14;;;;;;;;;;;0.40;99.90;;;;;;5076963;28;19909;-74
2021/11/07 06:50:39;;;;;;;;;;;0.30;99.90;;;;;;5073861;28;19964;-74
2021/11/07 06:53:05;;;;;;;;;;;0.40;99.90;;;;;;5073704;28;19954;-74
2021/11/07 06:55:31;;;;;;;;;;;0.40;99.90;;;;;;5073324;28;19913;-76
2021/11/07 06:57:57;;;;;;;;;;;0.30;99.90;;;;;;5073156;28;20387;-76
2021/11/07 07:00:23;;;;;;;;;;;0.40;99.90;;;;;;5072745;28;19908;-74
2021/11/07 07:02:49;;;;;;;;;;;0.50;99.90;;;;;;5073121;28;19909;-75
2021/11/07 07:05:17;;;;;;;;;;;0.60;99.90;;;;;;5073026;28;19915;-75
2021/11/07 07:07:46;;;;;;;;;;;0.80;99.90;;;;;;5073160;28;19939;-74
2021/11/07 07:13:15;;;;;;;;;;;1.10;99.90;;;;;;5039159;28;19908;-74
2021/11/07 07:15:49;;;;;;;;;;;1.20;99.90;;;;;;5073555;28;19917;-73
2021/11/07 07:21:15;;;;;;;;;;;1.40;99.90;;;;;;5073227;28;19908;-73
2021/11/07 07:28:55;;;;;;;;;;;1.60;99.90;;;;;;5073490;28;19920;-74
2021/11/07 07:31:46;;;;;;;;;;;1.80;99.90;;;;;;5054385;28;19999;-73
2021/11/07 07:34:17;;;;;;;;;;;1.90;99.90;;;;;;5073118;28;20274;-73
2021/11/07 07:36:42;;;;;;;;;;;1.90;99.90;;;;;;5054828;28;19912;-74
2021/11/07 07:39:08;;;;;;;;;;;2.00;99.90;;;;;;5072196;28;19916;-74
2021/11/07 07:41:34;;;;;;;;;;;2.10;99.90;;;;;;5072478;28;19974;-74
2021/11/07 07:44:06;;;;;;;;;;;2.20;99.90;;;;;;5072656;28;19939;-72
2021/11/07 07:46:31;;;;;;;;;;;2.30;99.90;;;;;;5056425;28;19977;-73
2021/11/07 07:48:58;;;;;;;;;;;2.40;99.90;;;;;;5092257;28;20003;-74
2021/11/07 07:51:26;;;;;;;;;;;2.50;99.90;;;;;;5073836;28;19912;-74
2021/11/07 07:53:51;;;;;;;;;;;2.90;99.90;;;;;;5093218;28;19912;-74
2021/11/07 07:56:17;;;;;;;;;;;3.10;99.90;;;;;;5092755;28;20317;-73
2021/11/07 07:58:42;;;;;;;;;;;3.40;99.90;;;;;;5074253;28;19912;-73
2021/11/07 08:01:08;;;;;;;;;;;3.70;99.90;;;;;;5091848;28;19954;-74
2021/11/07 08:03:34;;;;;;;;;;;3.80;99.90;;;;;;5092215;28;19916;-74
2021/11/07 08:06:00;;;;;;;;;;;4.50;99.90;;;;;;5093158;28;19908;-74
2021/11/07 08:08:26;;;;;;;;;;;5.40;99.90;;;;;;5074542;28;19915;-74
2021/11/07 08:10:51;;;;;;;;;;;4.80;99.90;;;;;;5092732;28;19968;-74
2021/11/07 08:13:17;;;;;;;;;;;4.00;99.90;;;;;;5092485;28;20370;-74
2021/11/07 08:15:42;;;;;;;;;;;3.60;99.90;;;;;;5074332;28;20045;-74
2021/11/07 08:18:08;;;;;;;;;;;3.50;99.90;;;;;;5075993;28;20003;-74
2021/11/07 08:20:34;;;;;;;;;;;3.30;99.90;;;;;;5053430;28;19915;-74
2021/11/07 08:23:00;;;;;;;;;;;3.20;99.90;;;;;;5071545;28;19916;-74
2021/11/07 08:25:26;;;;;;;;;;;3.20;99.90;;;;;;5072086;28;20370;-74
2021/11/07 08:27:58;;;;;;;;;;;3.10;99.90;;;;;;5072042;28;19913;-73
2021/11/07 08:30:25;;;;;;;;;;;3.20;99.90;;;;;;5053798;28;19908;-74
2021/11/07 08:32:51;;;;;;;;;;;3.20;99.90;;;;;;5072142;28;19934;-72
2021/11/07 08:35:17;;;;;;;;;;;3.20;99.90;;;;;;5053996;28;19912;-73
2021/11/07 08:40:35;;;;;;;;;;;3.10;99.90;;;;;;5072263;28;19958;-75
2021/11/07 09:10:04;;;;;;;;;;;4.40;99.90;;;;;;5070855;28;20371;-76
2021/11/07 09:12:30;;;;;;;;;;;4.70;99.90;;;;;;5053185;28;19966;-75
2021/11/07 09:14:56;;;;;;;;;;;4.50;99.90;;;;;;5070955;28;19912;-75
2021/11/07 09:17:21;;;;;;;;;;;4.70;99.90;;;;;;5079726;28;19912;-75
2021/11/07 09:19:50;;;;;;;;;;;4.80;99.90;;;;;;5090485;28;20406;-75
2021/11/07 09:22:23;;;;;;;;;;;5.10;99.90;;;;;;5091401;28;19908;-75
2021/11/07 09:25:01;;;;;;;;;;;5.20;99.90;;;;;;5091645;28;19947;-76
2021/11/07 09:30:06;;;;;;;;;;;8.30;99.90;;;;;;5090890;28;19915;-75
2021/11/07 09:35:16;;;;;;;;;;;12.40;99.90;;;;;;5091280;28;19965;-73
2021/11/07 09:37:50;;;;;;;;;;;14.40;99.90;;;;;;5072936;28;19912;-73
2021/11/07 09:40:18;;;;;;;;;;;14.40;99.80;;;;;;5090611;28;19969;-73
2021/11/07 09:45:25;;;;;;;;;;;11.20;99.90;;;;;;5091034;28;20312;-75
2021/11/07 09:47:56;;;;;;;;;;;10.90;99.90;;;;;;5078605;28;20367;-76
2021/11/07 09:50:22;;;;;;;;;;;9.60;99.90;;;;;;5070774;28;19913;-75
2021/11/07 09:52:49;;;;;;;;;;;8.80;99.90;;;;;;5074916;28;19908;-76
2021/11/07 09:55:20;;;;;;;;;;;8.30;99.90;;;;;;5072441;28;19916;-75
2021/11/07 09:57:47;;;;;;;;;;;8.10;99.90;;;;;;5072826;28;19908;-75
2021/11/07 10:00:15;;;;;;;;;;;7.90;99.90;;;;;;5089777;28;19908;-75
2021/11/07 10:02:41;;;;;;;;;;;7.90;99.90;;;;;;5093862;28;19915;-76
2021/11/07 10:05:08;;;;;;;;;;;7.80;99.90;;;;;;5094279;28;20294;-76
2021/11/07 10:07:36;;;;;;;;;;;7.90;99.90;;;;;;5075705;28;19916;-75
2021/11/07 10:10:11;;;;;;;;;;;8.00;99.90;;;;;;5075567;28;20340;-75
2021/11/07 10:12:40;;;;;;;;;;;8.00;99.90;;;;;;5094726;28;19908;-76
2021/11/07 10:15:09;;;;;;;;;;;8.00;99.90;;;;;;5076319;28;19919;-75
2021/11/07 10:17:48;;;;;;;;;;;8.00;99.90;;;;;;5089160;28;19919;-75
2021/11/07 10:20:33;;;;;;;;;;;7.70;99.90;;;;;;5087470;28;19914;-75
2021/11/07 10:23:12;;;;;;;;;;;7.60;99.90;;;;;;5092836;28;19959;-76
2021/11/07 10:25:46;;;;;;;;;;;7.90;99.90;;;;;;5091881;28;19930;-75
2021/11/07 10:28:25;;;;;;;;;;;8.00;99.90;;;;;;5075537;28;19916;-75
2021/11/07 10:31:02;;;;;;;;;;;8.30;99.90;;;;;;5075709;28;19916;-76
2021/11/07 10:47:12;;;;;;;;;;;8.90;99.90;;;;;;5087963;28;19916;-76
2021/11/07 10:52:39;;;;;;;;;;;8.70;99.90;;;;;;5093540;28;20305;-76
2021/11/07 10:55:16;;;;;;;;;;;8.60;99.90;;;;;;5093278;28;19938;-76
2021/11/07 10:57:45;;;;;;;;;;;9.10;99.90;;;;;;5092932;28;19911;-76
2021/11/07 11:00:19;;;;;;;;;;;9.10;99.90;;;;;;5092714;28;19953;-76
2021/11/07 11:02:47;;;;;;;;;;;9.60;99.90;;;;;;5092782;28;19908;-76
2021/11/07 11:05:14;;;;;;;;;;;9.80;99.90;;;;;;5074758;28;19923;-76
2021/11/07 11:07:51;;;;;;;;;;;10.00;99.90;;;;;;5092848;28;19916;-76
2021/11/07 11:10:20;;;;;;;;;;;10.10;99.90;;;;;;5071903;28;19944;-76
2021/11/07 11:13:09;;;;;;;;;;;10.20;99.90;;;;;;5071160;28;19999;-76
2021/11/07 11:15:41;;;;;;;;;;;10.10;99.90;;;;;;5073229;28;19912;-76
2021/11/07 11:18:26;;;;;;;;;;;9.90;99.90;;;;;;5077588;28;19909;-76
2021/11/07 11:21:18;;;;;;;;;;;10.30;99.90;;;;;;5072727;28;19987;-76
2021/11/07 11:29:08;;;;;;;;;;;10.80;99.90;;;;;;5073391;28;19934;-76
2021/11/07 11:32:09;;;;;;;;;;;10.80;99.90;;;;;;5072631;28;20310;-76
2021/11/07 11:34:33;;;;;;;;;;;10.60;99.90;;;;;;5069440;28;19917;-76
2021/11/07 11:37:09;;;;;;;;;;;10.60;99.90;;;;;;5072604;28;19908;-76
2021/11/07 11:39:39;;;;;;;;;;;10.30;99.90;;;;;;5073260;28;19916;-76
2021/11/07 11:42:16;;;;;;;;;;;9.90;99.90;;;;;;5073132;28;19974;-76
2021/11/07 11:44:48;;;;;;;;;;;9.70;99.90;;;;;;5073023;28;19954;-76
2021/11/07 11:47:57;;;;;;;;;;;9.50;99.90;;;;;;5077143;28;20274;-76
2021/11/07 11:50:32;;;;;;;;;;;9.40;99.90;;;;;;5072538;28;19920;-76
2021/11/07 11:56:02;;;;;;;;;;;9.10;99.90;;;;;;5089572;28;19923;-76
2021/11/07 11:58:40;;;;;;;;;;;9.30;99.90;;;;;;5092345;28;19908;-76
2021/11/07 12:01:14;;;;;;;;;;;9.40;99.90;;;;;;5091739;28;20003;-76
2021/11/07 12:03:58;;;;;;;;;;;9.60;99.90;;;;;;5092182;28;19916;-76
2021/11/07 12:06:57;;;;;;;;;;;9.70;99.90;;;;;;5091929;28;19908;-76
2021/11/07 12:09:25;;;;;;;;;;;9.50;99.90;;;;;;5088939;28;19909;-76
2021/11/07 12:12:42;;;;;;;;;;;9.30;99.90;;;;;;5073432;28;19916;-76
2021/11/07 12:15:25;;;;;;;;;;;9.10;99.90;;;;;;5081222;28;20365;-76
2021/11/07 12:18:09;;;;;;;;;;;9.40;99.90;;;;;;5062261;28;19915;-76
2021/11/07 12:20:37;;;;;;;;;;;10.00;99.90;;;;;;5071010;28;19913;-76
2021/11/07 12:23:17;;;;;;;;;;;9.90;99.90;;;;;;5070480;28;19909;-76
2021/11/07 12:25:43;;;;;;;;;;;9.90;99.90;;;;;;5053569;28;20314;-76
2021/11/07 12:28:09;;;;;;;;;;;9.60;99.90;;;;;;5071271;28;19924;-76
2021/11/07 12:30:36;;;;;;;;;;;9.60;99.90;;;;;;5071085;28;20019;-76
2021/11/07 12:33:11;;;;;;;;;;;9.80;99.90;;;;;;5071508;28;19948;-76
2021/11/07 12:35:39;;;;;;;;;;;9.70;99.90;;;;;;5071163;28;19913;-76
2021/11/07 12:41:02;;;;;;;;;;;9.70;99.90;;;;;;5070909;28;20287;-76
2021/11/07 12:43:30;;;;;;;;;;;9.80;99.90;;;;;;5071286;28;19947;-76
2021/11/07 12:46:02;;;;;;;;;;;9.80;99.90;;;;;;5071329;28;19995;-76
2021/11/07 12:48:37;;;;;;;;;;;10.00;99.90;;;;;;5089293;28;19965;-76
2021/11/07 12:51:05;;;;;;;;;;;10.20;99.90;;;;;;5091038;28;19958;-76
2021/11/07 12:53:50;;;;;;;;;;;10.30;99.90;;;;;;5091491;28;19908;-76
2021/11/07 12:56:26;;;;;;;;;;;10.30;99.90;;;;;;5091084;28;20380;-76
2021/11/07 12:58:51;;;;;;;;;;;10.20;99.90;;;;;;5091345;28;19952;-76
2021/11/07 13:01:17;;;;;;;;;;;10.10;99.90;;;;;;5090965;28;19967;-76
2021/11/07 13:03:43;;;;;;;;;;;9.90;99.90;;;;;;5091367;28;19915;-76
2021/11/07 13:06:09;;;;;;;;;;;9.80;99.90;;;;;;5091368;28;19908;-76
2021/11/07 13:08:42;;;;;;;;;;;10.00;99.90;;;;;;5091364;28;19919;-76
2021/11/07 13:11:19;;;;;;;;;;;10.20;99.90;;;;;;5072599;28;19916;-76
2021/11/07 13:13:59;;;;;;;;;;;10.40;99.90;;;;;;5091326;28;19908;-76
2021/11/07 13:26:49;;;;;;;;;;;10.60;99.90;;;;;;5071371;28;19915;-76
2021/11/07 13:31:48;;;;;;;;;;;10.40;99.90;;;;;;5070600;28;20011;-76
2021/11/07 13:34:18;;;;;;;;;;;10.20;99.90;;;;;;5071004;28;20405;-76
2021/11/07 13:36:44;;;;;;;;;;;10.40;99.90;;;;;;5055258;28;19999;-76
2021/11/07 13:39:12;;;;;;;;;;;10.80;99.90;;;;;;5074814;28;19995;-76
2021/11/07 13:41:39;;;;;;;;;;;11.10;99.90;;;;;;5074504;28;19990;-76
2021/11/07 13:44:17;;;;;;;;;;;11.40;99.90;;;;;;5074831;28;20254;-76
2021/11/07 13:46:53;;;;;;;;;;;11.40;99.90;;;;;;5078196;28;19961;-76
2021/11/07 13:49:18;;;;;;;;;;;11.40;99.90;;;;;;5094516;28;19908;-76
2021/11/07 13:51:53;;;;;;;;;;;11.20;99.90;;;;;;5094247;28;19933;-76
2021/11/07 13:54:18;;;;;;;;;;;11.20;99.90;;;;;;5076321;28;19916;-76
2021/11/07 13:56:45;;;;;;;;;;;10.50;99.90;;;;;;5094355;28;19912;-76
2021/11/07 13:59:11;;;;;;;;;;;10.10;99.90;;;;;;5076287;28;19908;-76
2021/11/07 14:01:36;;;;;;;;;;;9.80;99.90;;;;;;5094046;28;19915;-75
2021/11/07 14:04:02;;;;;;;;;;;9.70;99.90;;;;;;5094383;28;19908;-76
2021/11/07 14:06:32;;;;;;;;;;;9.70;99.90;;;;;;5076226;28;19908;-76
2021/11/07 14:09:01;;;;;;;;;;;9.60;99.90;;;;;;5094288;28;19940;-76
2021/11/07 14:11:28;;;;;;;;;;;9.60;99.90;;;;;;5093683;28;19916;-76
2021/11/07 14:13:55;;;;;;;;;;;9.50;99.90;;;;;;5094253;28;19915;-76
2021/11/07 14:16:39;;;;;;;;;;;9.40;99.90;;;;;;5093379;28;19919;-76
2021/11/07 14:19:07;;;;;;;;;;;9.40;99.90;;;;;;5073770;28;19962;-76
2021/11/07 14:21:36;;;;;;;;;;;9.20;99.90;;;;;;5073684;28;19915;-76
2021/11/07 14:26:45;;;;;;;;;;;9.20;99.90;;;;;;5074031;28;20355;-76
2021/11/07 14:29:16;;;;;;;;;;;9.10;99.90;;;;;;5073754;28;19962;-76
2021/11/07 14:34:52;;;;;;;;;;;8.90;99.90;;;;;;5075023;28;19989;-76
2021/11/07 14:37:26;;;;;;;;;;;8.90;99.90;;;;;;5074416;28;19963;-76
2021/11/07 14:42:34;;;;;;;;;;;8.70;99.90;;;;;;5073705;28;19916;-76
2021/11/07 14:45:14;;;;;;;;;;;8.60;99.90;;;;;;5073741;28;20400;-76
2021/11/07 14:47:57;;;;;;;;;;;8.50;99.90;;;;;;5084587;28;19908;-76
2021/11/07 14:53:00;;;;;;;;;;;8.30;99.90;;;;;;5093709;28;20278;-76
2021/11/07 14:55:30;;;;;;;;;;;8.30;99.90;;;;;;5093604;28;20366;-75
2021/11/07 14:58:30;;;;;;;;;;;8.30;99.90;;;;;;5093689;28;20430;-75
2021/11/07 15:01:14;;;;;;;;;;;8.20;99.90;;;;;;5092249;28;19912;-76
2021/11/07 15:03:52;;;;;;;;;;;8.20;99.90;;;;;;5075238;28;20305;-76
2021/11/07 15:09:13;;;;;;;;;;;8.10;99.90;;;;;;5093342;28;20278;-75
2021/11/07 15:14:26;;;;;;;;;;;8.00;99.90;;;;;;5093493;28;19908;-76
2021/11/07 15:17:06;;;;;;;;;;;8.00;99.90;;;;;;5088101;28;19916;-75
2021/11/07 15:19:37;;;;;;;;;;;7.90;99.90;;;;;;5072826;28;20315;-76
2021/11/07 15:22:11;;;;;;;;;;;7.90;99.90;;;;;;5072929;28;20165;-76
2021/11/07 15:24:46;;;;;;;;;;;7.90;99.90;;;;;;5072812;28;20374;-76
2021/11/07 15:27:14;;;;;;;;;;;7.80;99.90;;;;;;5072974;28;19919;-76
2021/11/07 15:30:01;;;;;;;;;;;7.80;99.90;;;;;;5072739;28;19951;-76
2021/11/07 15:32:30;;;;;;;;;;;7.70;99.90;;;;;;5073321;28;19939;-76
2021/11/07 15:34:55;;;;;;;;;;;7.70;99.90;;;;;;5072975;28;20010;-76
2021/11/07 15:37:25;;;;;;;;;;;7.70;99.90;;;;;;5072913;28;20247;-75
2021/11/07 15:39:52;;;;;;;;;;;7.70;99.90;;;;;;5071979;28;19909;-75
2021/11/07 15:42:23;;;;;;;;;;;7.70;99.90;;;;;;5072799;28;19916;-76
2021/11/07 15:45:00;;;;;;;;;;;7.70;99.90;;;;;;5072915;28;19912;-76
2021/11/07 15:47:39;;;;;;;;;;;7.60;99.90;;;;;;5081898;28;19908;-76
2021/11/07 15:53:07;;;;;;;;;;;7.60;99.90;;;;;;5085765;28;19908;-76
2021/11/07 16:01:04;;;;;;;;;;;7.50;99.90;;;;;;5092769;28;19908;-75
2021/11/07 16:18:36;;;;;;;;;;;7.40;99.90;;;;;;5072617;28;19999;-75
2021/11/07 16:21:02;;;;;;;;;;;7.40;99.90;;;;;;5071469;28;20348;-76
2021/11/07 16:23:28;;;;;;;;;;;7.30;99.90;;;;;;5071970;28;19908;-76
2021/11/07 16:25:53;;;;;;;;;;;7.30;99.90;;;;;;5071895;28;20374;-76
2021/11/07 16:28:19;;;;;;;;;;;7.30;99.90;;;;;;5072292;28;20374;-76
2021/11/07 16:30:45;;;;;;;;;;;7.30;99.90;;;;;;5089350;28;19913;-76
2021/11/07 16:33:16;;;;;;;;;;;7.20;99.90;;;;;;5092321;28;19908;-76
2021/11/07 16:35:48;;;;;;;;;;;7.20;99.90;;;;;;5091997;28;19916;-76
2021/11/07 16:41:00;;;;;;;;;;;7.20;99.90;;;;;;5091748;28;20332;-76
2021/11/07 16:43:27;;;;;;;;;;;7.20;99.90;;;;;;5091744;28;20008;-76
2021/11/07 16:45:56;;;;;;;;;;;7.20;99.90;;;;;;5091864;28;19908;-76
2021/11/07 16:48:22;;;;;;;;;;;7.10;99.90;;;;;;5081670;28;19916;-76
2021/11/07 16:50:55;;;;;;;;;;;7.10;99.90;;;;;;5073676;28;20009;-76
2021/11/07 16:53:33;;;;;;;;;;;7.10;99.90;;;;;;5069359;28;19952;-73
2021/11/07 16:56:05;;;;;;;;;;;7.10;99.90;;;;;;5070474;28;19981;-73
2021/11/07 17:01:22;;;;;;;;;;;7.00;99.90;;;;;;5070820;28;19915;-75
2021/11/07 17:03:52;;;;;;;;;;;7.00;99.90;;;;;;5071270;28;20007;-75
2021/11/07 17:11:36;;;;;;;;;;;6.80;99.90;;;;;;5075531;28;19917;-75
2021/11/07 17:14:03;;;;;;;;;;;6.80;99.90;;;;;;5075437;28;19965;-75
2021/11/07 17:16:33;;;;;;;;;;;6.70;99.90;;;;;;5079578;28;19912;-75
2021/11/07 17:18:59;;;;;;;;;;;6.70;99.90;;;;;;5056698;28;19908;-75
2021/11/07 17:21:42;;;;;;;;;;;6.80;99.90;;;;;;5057283;28;20062;-74
2021/11/07 17:24:31;;;;;;;;;;;6.80;99.90;;;;;;5057677;28;19908;-75
2021/11/07 17:27:03;;;;;;;;;;;6.80;99.90;;;;;;5076091;28;19909;-75